sensor_id;sensor_type;location;lat;lon;timestamp;pressure;altitude;pressure_sealevel;temperature;humidity
51245;BME280;37840;47.562;18.738;2023-06-14T00:00:52;99449.78;;;13.33;74.63
51245;BME280;37840;47.562;18.738;2023-06-14T00:03:18;99449.06;;;13.31;74.35
51245;BME280;37840;47.562;18.738;2023-06-14T00:05:45;99442.84;;;13.30;74.53
51245;BME280;37840;47.562;18.738;2023-06-14T00:08:12;99444.97;;;13.36;74.58
51245;BME280;37840;47.562;18.738;2023-06-14T00:10:38;99444.03;;;13.16;75.99
51245;BME280;37840;47.562;18.738;2023-06-14T00:13:06;99444.03;;;13.16;76.04
51245;BME280;37840;47.562;18.738;2023-06-14T00:15:33;99444.22;;;13.24;75.50
51245;BME280;37840;47.562;18.738;2023-06-14T00:17:59;99448.34;;;13.29;75.64
51245;BME280;37840;47.562;18.738;2023-06-14T00:20:27;99449.59;;;13.34;75.24
51245;BME280;37840;47.562;18.738;2023-06-14T00:22:53;99447.53;;;13.38;75.16
51245;BME280;37840;47.562;18.738;2023-06-14T00:25:22;99453.69;;;13.29;73.87
51245;BME280;37840;47.562;18.738;2023-06-14T00:27:49;99452.75;;;13.18;75.04
51245;BME280;37840;47.562;18.738;2023-06-14T00:30:15;99452.97;;;12.84;74.73
51245;BME280;37840;47.562;18.738;2023-06-14T00:32:41;99454.00;;;12.51;76.36
51245;BME280;37840;47.562;18.738;2023-06-14T00:35:09;99451.63;;;12.69;76.50
51245;BME280;37840;47.562;18.738;2023-06-14T00:37:35;99446.59;;;12.55;77.50
51245;BME280;37840;47.562;18.738;2023-06-14T00:40:01;99449.06;;;12.68;77.00
51245;BME280;37840;47.562;18.738;2023-06-14T00:42:28;99453.88;;;12.74;76.72
51245;BME280;37840;47.562;18.738;2023-06-14T00:44:54;99456.03;;;12.80;76.41
51245;BME280;37840;47.562;18.738;2023-06-14T00:47:20;99455.94;;;12.81;76.83
51245;BME280;37840;47.562;18.738;2023-06-14T00:49:47;99453.09;;;12.83;75.93
51245;BME280;37840;47.562;18.738;2023-06-14T00:52:14;99457.78;;;12.49;78.01
51245;BME280;37840;47.562;18.738;2023-06-14T00:54:41;99459.81;;;12.56;78.29
51245;BME280;37840;47.562;18.738;2023-06-14T00:57:08;99454.41;;;12.68;77.84
51245;BME280;37840;47.562;18.738;2023-06-14T00:59:40;99455.72;;;12.73;77.15
51245;BME280;37840;47.562;18.738;2023-06-14T01:02:07;99451.34;;;12.72;77.10
51245;BME280;37840;47.562;18.738;2023-06-14T01:04:33;99454.41;;;12.68;77.46
51245;BME280;37840;47.562;18.738;2023-06-14T01:12:47;99455.31;;;12.78;77.42
51245;BME280;37840;47.562;18.738;2023-06-14T01:15:17;99449.88;;;12.79;77.35
51245;BME280;37840;47.562;18.738;2023-06-14T01:17:44;99447.31;;;12.78;76.80
51245;BME280;37840;47.562;18.738;2023-06-14T01:20:15;99450.72;;;12.80;77.04
51245;BME280;37840;47.562;18.738;2023-06-14T01:22:53;99440.88;;;12.80;76.51
51245;BME280;37840;47.562;18.738;2023-06-14T01:25:20;99442.81;;;12.78;76.22
51245;BME280;37840;47.562;18.738;2023-06-14T01:27:51;99442.94;;;12.77;76.07
51245;BME280;37840;47.562;18.738;2023-06-14T01:30:20;99442.38;;;12.73;76.61
51245;BME280;37840;47.562;18.738;2023-06-14T01:32:48;99445.09;;;12.62;76.99
51245;BME280;37840;47.562;18.738;2023-06-14T01:35:16;99444.72;;;12.67;77.53
51245;BME280;37840;47.562;18.738;2023-06-14T01:37:43;99443.84;;;12.66;77.12
51245;BME280;37840;47.562;18.738;2023-06-14T01:40:10;99449.91;;;12.47;78.37
51245;BME280;37840;47.562;18.738;2023-06-14T01:42:37;99452.53;;;12.58;77.81
51245;BME280;37840;47.562;18.738;2023-06-14T01:45:05;99450.31;;;12.63;77.47
51245;BME280;37840;47.562;18.738;2023-06-14T01:47:32;99455.00;;;12.71;76.92
51245;BME280;37840;47.562;18.738;2023-06-14T01:49:59;99453.88;;;12.74;75.71
51245;BME280;37840;47.562;18.738;2023-06-14T01:52:25;99456.28;;;12.77;75.55
51245;BME280;37840;47.562;18.738;2023-06-14T01:54:51;99450.38;;;12.73;75.57
51245;BME280;37840;47.562;18.738;2023-06-14T01:57:17;99447.72;;;12.73;75.91
51245;BME280;37840;47.562;18.738;2023-06-14T01:59:43;99444.91;;;12.75;75.68
51245;BME280;37840;47.562;18.738;2023-06-14T02:02:14;99448.28;;;12.77;75.74
51245;BME280;37840;47.562;18.738;2023-06-14T02:04:41;99450.72;;;12.80;75.63
51245;BME280;37840;47.562;18.738;2023-06-14T02:07:07;99457.72;;;12.81;75.71
51245;BME280;37840;47.562;18.738;2023-06-14T02:09:36;99456.44;;;12.75;74.97
51245;BME280;37840;47.562;18.738;2023-06-14T02:12:02;99455.97;;;12.70;74.03
51245;BME280;37840;47.562;18.738;2023-06-14T02:14:28;99461.09;;;12.62;74.01
51245;BME280;37840;47.562;18.738;2023-06-14T02:16:54;99464.88;;;12.59;74.77
51245;BME280;37840;47.562;18.738;2023-06-14T02:19:20;99462.72;;;12.53;75.03
51245;BME280;37840;47.562;18.738;2023-06-14T02:21:47;99465.53;;;12.52;75.56
51245;BME280;37840;47.562;18.738;2023-06-14T02:24:13;99458.03;;;12.46;75.79
51245;BME280;37840;47.562;18.738;2023-06-14T02:26:39;99464.44;;;12.43;76.29
51245;BME280;37840;47.562;18.738;2023-06-14T02:29:07;99462.91;;;12.40;76.58
51245;BME280;37840;47.562;18.738;2023-06-14T02:31:35;99462.31;;;12.37;76.74
51245;BME280;37840;47.562;18.738;2023-06-14T02:34:02;99464.50;;;12.32;76.97
51245;BME280;37840;47.562;18.738;2023-06-14T02:36:28;99467.56;;;12.27;77.19
51245;BME280;37840;47.562;18.738;2023-06-14T02:38:57;99458.84;;;12.25;76.98
51245;BME280;37840;47.562;18.738;2023-06-14T02:41:26;99461.63;;;12.23;77.00
51245;BME280;37840;47.562;18.738;2023-06-14T02:43:53;99465.41;;;12.21;76.99
51245;BME280;37840;47.562;18.738;2023-06-14T02:46:19;99464.44;;;12.22;77.18
51245;BME280;37840;47.562;18.738;2023-06-14T02:48:44;99461.94;;;12.09;77.24
51245;BME280;37840;47.562;18.738;2023-06-14T02:51:10;99463.31;;;11.92;76.75
51245;BME280;37840;47.562;18.738;2023-06-14T02:53:38;99455.66;;;11.99;77.11
51245;BME280;37840;47.562;18.738;2023-06-14T02:56:04;99457.22;;;12.01;76.41
51245;BME280;37840;47.562;18.738;2023-06-14T02:58:30;99459.87;;;12.01;76.70
51245;BME280;37840;47.562;18.738;2023-06-14T03:00:56;99455.28;;;12.03;77.10
51245;BME280;37840;47.562;18.738;2023-06-14T03:03:22;99454.19;;;12.06;76.58
51245;BME280;37840;47.562;18.738;2023-06-14T03:05:50;99460.22;;;12.08;77.13
51245;BME280;37840;47.562;18.738;2023-06-14T03:08:16;99464.44;;;12.11;77.69
51245;BME280;37840;47.562;18.738;2023-06-14T03:10:48;99462.91;;;12.08;78.15
51245;BME280;37840;47.562;18.738;2023-06-14T03:13:17;99458.41;;;12.09;78.39
51245;BME280;37840;47.562;18.738;2023-06-14T03:15:46;99464.72;;;12.08;78.51
51245;BME280;37840;47.562;18.738;2023-06-14T03:18:16;99463.50;;;12.12;78.91
51245;BME280;37840;47.562;18.738;2023-06-14T03:20:42;99463.72;;;12.20;78.68
51245;BME280;37840;47.562;18.738;2023-06-14T03:23:11;99469.50;;;12.25;78.94
51245;BME280;37840;47.562;18.738;2023-06-14T03:25:38;99463.78;;;12.30;79.33
51245;BME280;37840;47.562;18.738;2023-06-14T03:28:06;99464.00;;;12.38;79.28
51245;BME280;37840;47.562;18.738;2023-06-14T03:30:32;99465.78;;;12.16;78.52
51245;BME280;37840;47.562;18.738;2023-06-14T03:32:58;99464.91;;;12.27;78.75
51245;BME280;37840;47.562;18.738;2023-06-14T03:35:28;99468.91;;;12.21;79.91
51245;BME280;37840;47.562;18.738;2023-06-14T03:37:54;99468.66;;;12.24;79.63
51245;BME280;37840;47.562;18.738;2023-06-14T03:40:20;99476.28;;;12.29;80.50
51245;BME280;37840;47.562;18.738;2023-06-14T03:42:47;99471.56;;;12.33;81.76
51245;BME280;37840;47.562;18.738;2023-06-14T03:45:13;99476.38;;;12.39;82.67
51245;BME280;37840;47.562;18.738;2023-06-14T03:47:39;99479.38;;;12.02;83.92
51245;BME280;37840;47.562;18.738;2023-06-14T03:50:05;99475.09;;;12.22;83.00
51245;BME280;37840;47.562;18.738;2023-06-14T03:52:31;99484.16;;;12.31;83.57
51245;BME280;37840;47.562;18.738;2023-06-14T03:54:58;99489.81;;;12.05;85.08
51245;BME280;37840;47.562;18.738;2023-06-14T03:57:26;99489.28;;;12.22;84.36
51245;BME280;37840;47.562;18.738;2023-06-14T03:59:52;99491.16;;;11.66;86.46
51245;BME280;37840;47.562;18.738;2023-06-14T04:02:18;99489.19;;;12.01;84.78
51245;BME280;37840;47.562;18.738;2023-06-14T04:04:44;99492.16;;;12.19;85.49
51245;BME280;37840;47.562;18.738;2023-06-14T04:07:12;99491.78;;;12.35;85.43
51245;BME280;37840;47.562;18.738;2023-06-14T04:09:39;99492.22;;;12.52;86.02
51245;BME280;37840;47.562;18.738;2023-06-14T04:12:05;99495.53;;;12.65;86.59
51245;BME280;37840;47.562;18.738;2023-06-14T04:14:31;99492.56;;;12.79;86.65
51245;BME280;37840;47.562;18.738;2023-06-14T04:16:58;99494.16;;;12.92;86.59
51245;BME280;37840;47.562;18.738;2023-06-14T04:19:25;99497.50;;;13.05;87.66
51245;BME280;37840;47.562;18.738;2023-06-14T04:21:51;99509.06;;;13.15;87.36
51245;BME280;37840;47.562;18.738;2023-06-14T04:24:16;99502.25;;;13.22;91.15
51245;BME280;37840;47.562;18.738;2023-06-14T04:26:43;99495.66;;;13.26;91.19
51245;BME280;37840;47.562;18.738;2023-06-14T04:29:19;99504.25;;;13.30;92.69
51245;BME280;37840;47.562;18.738;2023-06-14T04:31:46;99508.13;;;13.37;92.44
51245;BME280;37840;47.562;18.738;2023-06-14T04:34:12;99508.56;;;13.42;92.05
51245;BME280;37840;47.562;18.738;2023-06-14T04:36:44;99520.13;;;13.53;90.72
51245;BME280;37840;47.562;18.738;2023-06-14T04:39:19;99518.31;;;13.53;91.73
51245;BME280;37840;47.562;18.738;2023-06-14T04:41:47;99521.69;;;13.55;92.02
51245;BME280;37840;47.562;18.738;2023-06-14T04:44:13;99522.81;;;13.53;92.93
51245;BME280;37840;47.562;18.738;2023-06-14T04:46:39;99521.84;;;13.54;92.66
51245;BME280;37840;47.562;18.738;2023-06-14T04:49:15;99526.78;;;13.58;94.38
51245;BME280;37840;47.562;18.738;2023-06-14T04:51:45;99522.72;;;13.64;93.44
51245;BME280;37840;47.562;18.738;2023-06-14T04:54:11;99517.81;;;13.69;95.10
51245;BME280;37840;47.562;18.738;2023-06-14T04:56:43;99521.22;;;13.81;92.07
51245;BME280;37840;47.562;18.738;2023-06-14T04:59:10;99519.84;;;13.86;94.06
51245;BME280;37840;47.562;18.738;2023-06-14T05:01:40;99518.31;;;13.94;94.51
51245;BME280;37840;47.562;18.738;2023-06-14T05:04:06;99516.09;;;13.99;92.96
51245;BME280;37840;47.562;18.738;2023-06-14T05:06:32;99517.78;;;14.00;91.88
51245;BME280;37840;47.562;18.738;2023-06-14T05:08:58;99521.59;;;14.07;93.10
51245;BME280;37840;47.562;18.738;2023-06-14T05:11:24;99520.47;;;14.10;91.85
51245;BME280;37840;47.562;18.738;2023-06-14T05:13:50;99517.41;;;14.14;92.36
51245;BME280;37840;47.562;18.738;2023-06-14T05:16:17;99516.84;;;14.20;93.69
51245;BME280;37840;47.562;18.738;2023-06-14T05:18:45;99522.47;;;14.27;93.07
51245;BME280;37840;47.562;18.738;2023-06-14T05:21:13;99524.03;;;14.30;94.00
51245;BME280;37840;47.562;18.738;2023-06-14T05:23:43;99522.19;;;14.30;91.64
51245;BME280;37840;47.562;18.738;2023-06-14T05:26:10;99523.78;;;14.33;91.71
51245;BME280;37840;47.562;18.738;2023-06-14T05:28:36;99524.06;;;14.39;92.60
51245;BME280;37840;47.562;18.738;2023-06-14T05:31:02;99525.47;;;14.43;92.89
51245;BME280;37840;47.562;18.738;2023-06-14T05:33:28;99527.72;;;14.48;93.37
51245;BME280;37840;47.562;18.738;2023-06-14T05:35:54;99528.13;;;14.53;93.78
51245;BME280;37840;47.562;18.738;2023-06-14T05:38:21;99529.59;;;14.57;93.71
51245;BME280;37840;47.562;18.738;2023-06-14T05:40:47;99527.91;;;14.66;96.12
51245;BME280;37840;47.562;18.738;2023-06-14T05:43:13;99533.12;;;14.67;93.18
51245;BME280;37840;47.562;18.738;2023-06-14T05:45:39;99525.22;;;14.76;95.58
51245;BME280;37840;47.562;18.738;2023-06-14T05:48:05;99534.13;;;14.86;91.13
51245;BME280;37840;47.562;18.738;2023-06-14T05:50:31;99531.72;;;14.93;93.52
51245;BME280;37840;47.562;18.738;2023-06-14T05:52:57;99534.78;;;14.98;90.40
51245;BME280;37840;47.562;18.738;2023-06-14T05:55:23;99534.53;;;15.01;86.48
51245;BME280;37840;47.562;18.738;2023-06-14T05:57:49;99530.13;;;15.09;90.73
51245;BME280;37840;47.562;18.738;2023-06-14T06:00:15;99535.06;;;15.14;89.81
51245;BME280;37840;47.562;18.738;2023-06-14T06:02:42;99542.00;;;15.07;89.35
51245;BME280;37840;47.562;18.738;2023-06-14T06:05:12;99544.94;;;15.04;89.72
51245;BME280;37840;47.562;18.738;2023-06-14T06:07:39;99532.09;;;15.17;89.98
51245;BME280;37840;47.562;18.738;2023-06-14T06:10:10;99534.75;;;15.37;91.60
51245;BME280;37840;47.562;18.738;2023-06-14T06:12:36;99535.66;;;15.55;90.72
51245;BME280;37840;47.562;18.738;2023-06-14T06:15:02;99537.63;;;15.63;90.52
51245;BME280;37840;47.562;18.738;2023-06-14T06:17:28;99546.25;;;15.57;87.62
51245;BME280;37840;47.562;18.738;2023-06-14T06:19:54;99543.56;;;15.47;87.17
51245;BME280;37840;47.562;18.738;2023-06-14T06:22:20;99539.53;;;15.43;86.38
51245;BME280;37840;47.562;18.738;2023-06-14T06:24:46;99543.75;;;15.36;84.88
51245;BME280;37840;47.562;18.738;2023-06-14T06:27:12;99538.69;;;15.33;86.50
51245;BME280;37840;47.562;18.738;2023-06-14T06:29:38;99545.28;;;15.38;86.87
51245;BME280;37840;47.562;18.738;2023-06-14T06:32:05;99545.16;;;15.49;86.53
51245;BME280;37840;47.562;18.738;2023-06-14T06:34:31;99540.75;;;15.58;84.94
51245;BME280;37840;47.562;18.738;2023-06-14T06:36:57;99544.22;;;15.78;86.93
51245;BME280;37840;47.562;18.738;2023-06-14T06:39:23;99543.59;;;15.94;86.06
51245;BME280;37840;47.562;18.738;2023-06-14T06:41:49;99541.03;;;16.02;82.81
51245;BME280;37840;47.562;18.738;2023-06-14T06:44:14;99541.50;;;15.88;82.85
51245;BME280;37840;47.562;18.738;2023-06-14T06:46:40;99545.13;;;15.97;84.90
51245;BME280;37840;47.562;18.738;2023-06-14T06:49:08;99535.34;;;16.05;85.31
51245;BME280;37840;47.562;18.738;2023-06-14T06:51:35;99535.69;;;16.20;82.74
51245;BME280;37840;47.562;18.738;2023-06-14T06:54:02;99546.75;;;16.35;81.28
51245;BME280;37840;47.562;18.738;2023-06-14T06:56:28;99543.75;;;16.38;80.95
51245;BME280;37840;47.562;18.738;2023-06-14T06:58:54;99548.03;;;16.31;80.32
51245;BME280;37840;47.562;18.738;2023-06-14T07:01:20;99545.91;;;16.35;81.23
51245;BME280;37840;47.562;18.738;2023-06-14T07:03:46;99545.91;;;16.35;80.52
51245;BME280;37840;47.562;18.738;2023-06-14T07:06:12;99538.88;;;16.51;79.60
51245;BME280;37840;47.562;18.738;2023-06-14T07:08:38;99541.09;;;16.74;79.71
51245;BME280;37840;47.562;18.738;2023-06-14T07:11:05;99549.34;;;16.90;80.97
51245;BME280;37840;47.562;18.738;2023-06-14T07:13:31;99548.25;;;17.19;81.63
51245;BME280;37840;47.562;18.738;2023-06-14T07:15:58;99551.16;;;17.26;77.81
51245;BME280;37840;47.562;18.738;2023-06-14T07:18:26;99542.59;;;17.30;79.70
51245;BME280;37840;47.562;18.738;2023-06-14T07:20:53;99552.88;;;17.35;76.46
51245;BME280;37840;47.562;18.738;2023-06-14T07:23:20;99547.19;;;17.38;79.78
51245;BME280;37840;47.562;18.738;2023-06-14T07:25:46;99549.22;;;17.44;77.52
51245;BME280;37840;47.562;18.738;2023-06-14T07:28:12;99553.88;;;17.60;76.76
51245;BME280;37840;47.562;18.738;2023-06-14T07:30:38;99553.06;;;17.60;77.46
51245;BME280;37840;47.562;18.738;2023-06-14T07:33:04;99552.81;;;17.53;77.35
51245;BME280;37840;47.562;18.738;2023-06-14T07:35:30;99555.06;;;17.66;75.56
51245;BME280;37840;47.562;18.738;2023-06-14T07:37:56;99553.06;;;17.68;75.28
51245;BME280;37840;47.562;18.738;2023-06-14T07:40:22;99554.78;;;17.69;75.62
51245;BME280;37840;47.562;18.738;2023-06-14T07:42:48;99563.72;;;17.78;71.77
51245;BME280;37840;47.562;18.738;2023-06-14T07:45:16;99568.41;;;17.76;73.45
51245;BME280;37840;47.562;18.738;2023-06-14T07:47:42;99565.38;;;17.70;71.80
51245;BME280;37840;47.562;18.738;2023-06-14T07:50:08;99567.19;;;17.62;75.37
51245;BME280;37840;47.562;18.738;2023-06-14T07:52:35;99564.72;;;17.50;72.46
51245;BME280;37840;47.562;18.738;2023-06-14T07:55:01;99563.53;;;17.45;73.90
51245;BME280;37840;47.562;18.738;2023-06-14T07:57:26;99567.75;;;17.47;71.23
51245;BME280;37840;47.562;18.738;2023-06-14T07:59:52;99570.22;;;17.41;75.63
51245;BME280;37840;47.562;18.738;2023-06-14T08:02:18;99574.22;;;17.37;73.03
51245;BME280;37840;47.562;18.738;2023-06-14T08:04:44;99576.84;;;17.28;73.02
51245;BME280;37840;47.562;18.738;2023-06-14T08:07:11;99577.91;;;17.36;71.23
51245;BME280;37840;47.562;18.738;2023-06-14T08:09:37;99583.50;;;17.42;72.02
51245;BME280;37840;47.562;18.738;2023-06-14T08:12:05;99582.34;;;17.45;70.56
51245;BME280;37840;47.562;18.738;2023-06-14T08:14:33;99579.69;;;17.53;71.01
51245;BME280;37840;47.562;18.738;2023-06-14T08:16:59;99587.75;;;17.53;71.96
51245;BME280;37840;47.562;18.738;2023-06-14T08:19:25;99579.69;;;17.53;70.03
51245;BME280;37840;47.562;18.738;2023-06-14T08:21:51;99587.47;;;17.56;70.98
51245;BME280;37840;47.562;18.738;2023-06-14T08:24:17;99589.37;;;17.64;73.99
51245;BME280;37840;47.562;18.738;2023-06-14T08:26:44;99592.16;;;17.80;70.44
51245;BME280;37840;47.562;18.738;2023-06-14T08:29:10;99587.59;;;17.81;73.54
51245;BME280;37840;47.562;18.738;2023-06-14T08:31:36;99590.09;;;17.74;72.66
51245;BME280;37840;47.562;18.738;2023-06-14T08:34:02;99595.09;;;17.69;71.69
51245;BME280;37840;47.562;18.738;2023-06-14T08:36:28;99596.09;;;17.68;71.36
51245;BME280;37840;47.562;18.738;2023-06-14T08:38:54;99600.62;;;17.67;71.27
51245;BME280;37840;47.562;18.738;2023-06-14T08:41:22;99597.13;;;17.67;70.25
51245;BME280;37840;47.562;18.738;2023-06-14T08:43:51;99596.91;;;17.86;70.77
51245;BME280;37840;47.562;18.738;2023-06-14T08:46:18;99603.72;;;17.99;72.08
51245;BME280;37840;47.562;18.738;2023-06-14T08:48:48;99606.00;;;17.85;70.69
51245;BME280;37840;47.562;18.738;2023-06-14T08:51:18;99613.66;;;17.98;70.98
51245;BME280;37840;47.562;18.738;2023-06-14T08:53:44;99615.16;;;18.01;71.37
51245;BME280;37840;47.562;18.738;2023-06-14T08:56:12;99616.12;;;17.91;72.62
51245;BME280;37840;47.562;18.738;2023-06-14T08:58:43;99618.28;;;17.88;75.37
51245;BME280;37840;47.562;18.738;2023-06-14T09:01:11;99626.84;;;17.83;72.35
51245;BME280;37840;47.562;18.738;2023-06-14T09:03:42;99624.84;;;17.85;73.77
51245;BME280;37840;47.562;18.738;2023-06-14T09:06:09;99623.12;;;17.84;72.08
51245;BME280;37840;47.562;18.738;2023-06-14T09:08:43;99624.34;;;17.90;75.40
51245;BME280;37840;47.562;18.738;2023-06-14T09:11:16;99623.53;;;17.89;73.79
51245;BME280;37840;47.562;18.738;2023-06-14T09:13:48;99620.00;;;17.97;75.11
51245;BME280;37840;47.562;18.738;2023-06-14T09:16:14;99621.47;;;18.18;70.92
51245;BME280;37840;47.562;18.738;2023-06-14T09:18:45;99623.34;;;18.17;72.55
51245;BME280;37840;47.562;18.738;2023-06-14T09:21:15;99628.59;;;18.35;76.99
51245;BME280;37840;47.562;18.738;2023-06-14T09:23:45;99623.62;;;18.57;71.02
51245;BME280;37840;47.562;18.738;2023-06-14T09:26:14;99622.22;;;18.79;68.46
51245;BME280;37840;47.562;18.738;2023-06-14T09:28:44;99621.56;;;18.93;71.46
51245;BME280;37840;47.562;18.738;2023-06-14T09:31:12;99620.59;;;19.02;69.93
51245;BME280;37840;47.562;18.738;2023-06-14T09:33:38;99616.88;;;19.20;69.94
51245;BME280;37840;47.562;18.738;2023-06-14T09:36:11;99611.81;;;19.00;66.72
51245;BME280;37840;47.562;18.738;2023-06-14T09:38:40;99615.34;;;19.01;69.96
51245;BME280;37840;47.562;18.738;2023-06-14T09:41:06;99607.63;;;19.22;70.50
51245;BME280;37840;47.562;18.738;2023-06-14T09:43:33;99613.34;;;19.19;67.90
51245;BME280;37840;47.562;18.738;2023-06-14T09:46:03;99616.22;;;19.26;68.51
51245;BME280;37840;47.562;18.738;2023-06-14T09:48:30;99603.91;;;19.15;64.65
51245;BME280;37840;47.562;18.738;2023-06-14T09:50:56;99606.44;;;19.08;64.93
51245;BME280;37840;47.562;18.738;2023-06-14T09:53:24;99608.62;;;19.13;65.38
51245;BME280;37840;47.562;18.738;2023-06-14T09:55:52;99609.81;;;19.27;63.02
51245;BME280;37840;47.562;18.738;2023-06-14T09:58:20;99606.94;;;19.28;63.66
51245;BME280;37840;47.562;18.738;2023-06-14T10:00:50;99599.00;;;19.27;64.08
51245;BME280;37840;47.562;18.738;2023-06-14T10:03:21;99589.25;;;19.09;66.67
51245;BME280;37840;47.562;18.738;2023-06-14T10:05:50;99592.09;;;19.08;66.48
51245;BME280;37840;47.562;18.738;2023-06-14T10:08:19;99591.09;;;19.09;65.52
51245;BME280;37840;47.562;18.738;2023-06-14T10:10:46;99590.75;;;19.04;65.08
51245;BME280;37840;47.562;18.738;2023-06-14T10:13:13;99594.28;;;19.12;66.93
51245;BME280;37840;47.562;18.738;2023-06-14T10:15:58;99598.19;;;19.43;68.62
51245;BME280;37840;47.562;18.738;2023-06-14T10:18:54;99593.94;;;19.65;66.71
51245;BME280;37840;47.562;18.738;2023-06-14T10:21:37;99602.69;;;19.67;67.01
51245;BME280;37840;47.562;18.738;2023-06-14T10:24:10;99603.38;;;19.85;66.96
51245;BME280;37840;47.562;18.738;2023-06-14T10:26:51;99606.00;;;20.02;66.60
51245;BME280;37840;47.562;18.738;2023-06-14T10:29:17;99593.69;;;20.07;65.40
51245;BME280;37840;47.562;18.738;2023-06-14T10:34:12;99598.56;;;20.12;65.41
51245;BME280;37840;47.562;18.738;2023-06-14T10:36:42;99589.75;;;20.18;65.58
51245;BME280;37840;47.562;18.738;2023-06-14T10:39:17;99587.84;;;20.27;64.98
51245;BME280;37840;47.562;18.738;2023-06-14T10:41:53;99590.34;;;20.36;63.67
51245;BME280;37840;47.562;18.738;2023-06-14T10:46:46;99585.88;;;20.52;62.81
51245;BME280;37840;47.562;18.738;2023-06-14T10:49:17;99593.50;;;20.48;63.55
51245;BME280;37840;47.562;18.738;2023-06-14T10:51:50;99585.06;;;20.51;62.44
51245;BME280;37840;47.562;18.738;2023-06-14T10:54:20;99589.78;;;20.58;62.86
51245;BME280;37840;47.562;18.738;2023-06-14T10:56:47;99585.50;;;20.63;63.96
51245;BME280;37840;47.562;18.738;2023-06-14T10:59:15;99585.88;;;20.60;64.06
51245;BME280;37840;47.562;18.738;2023-06-14T11:07:47;99571.91;;;21.03;61.75
51245;BME280;37840;47.562;18.738;2023-06-14T11:10:37;99575.94;;;21.07;57.56
51245;BME280;37840;47.562;18.738;2023-06-14T11:13:04;99584.03;;;21.30;55.17
51245;BME280;37840;47.562;18.738;2023-06-14T11:15:31;99578.56;;;21.38;55.84
51245;BME280;37840;47.562;18.738;2023-06-14T11:18:00;99575.84;;;21.38;52.46
51245;BME280;37840;47.562;18.738;2023-06-14T11:20:29;99577.34;;;21.41;55.54
51245;BME280;37840;47.562;18.738;2023-06-14T11:22:55;99577.56;;;21.54;55.15
51245;BME280;37840;47.562;18.738;2023-06-14T11:25:21;99573.31;;;21.60;54.78
51245;BME280;37840;47.562;18.738;2023-06-14T11:27:49;99580.69;;;21.66;54.78
51245;BME280;37840;47.562;18.738;2023-06-14T11:30:16;99571.69;;;21.65;55.85
51245;BME280;37840;47.562;18.738;2023-06-14T11:32:42;99570.88;;;21.65;55.13
51245;BME280;37840;47.562;18.738;2023-06-14T11:35:11;99566.41;;;21.72;56.69
51245;BME280;37840;47.562;18.738;2023-06-14T11:37:37;99563.97;;;21.77;55.12
51245;BME280;37840;47.562;18.738;2023-06-14T11:40:04;99560.88;;;21.80;55.17
51245;BME280;37840;47.562;18.738;2023-06-14T11:42:36;99568.16;;;21.79;56.29
51245;BME280;37840;47.562;18.738;2023-06-14T11:45:03;99567.44;;;21.86;50.46
51245;BME280;37840;47.562;18.738;2023-06-14T11:47:34;99574.34;;;21.88;53.62
51245;BME280;37840;47.562;18.738;2023-06-14T11:50:02;99566.94;;;21.67;52.94
51245;BME280;37840;47.562;18.738;2023-06-14T11:52:28;99574.16;;;21.75;51.68
51245;BME280;37840;47.562;18.738;2023-06-14T11:54:56;99564.06;;;21.84;52.33
51245;BME280;37840;47.562;18.738;2023-06-14T11:57:22;99565.47;;;21.79;51.54
51245;BME280;37840;47.562;18.738;2023-06-14T11:59:49;99566.41;;;21.87;52.02
51245;BME280;37840;47.562;18.738;2023-06-14T12:02:15;99566.87;;;21.90;53.03
51245;BME280;37840;47.562;18.738;2023-06-14T12:04:51;99572.66;;;21.87;52.17
51245;BME280;37840;47.562;18.738;2023-06-14T12:07:18;99582.28;;;21.90;51.17
51245;BME280;37840;47.562;18.738;2023-06-14T12:12:17;99564.25;;;21.97;47.59
51245;BME280;37840;47.562;18.738;2023-06-14T12:14:43;99563.78;;;22.08;47.20
51245;BME280;37840;47.562;18.738;2023-06-14T12:17:09;99560.78;;;22.18;48.97
51245;BME280;37840;47.562;18.738;2023-06-14T12:19:42;99571.78;;;22.16;52.50
51245;BME280;37840;47.562;18.738;2023-06-14T12:22:12;99579.19;;;21.93;50.22
51245;BME280;37840;47.562;18.738;2023-06-14T12:24:39;99579.47;;;21.83;48.53
51245;BME280;37840;47.562;18.738;2023-06-14T12:27:07;99580.88;;;21.79;48.02
51245;BME280;37840;47.562;18.738;2023-06-14T12:29:34;99582.81;;;21.70;47.65
51245;BME280;37840;47.562;18.738;2023-06-14T12:32:00;99570.78;;;21.88;50.63
51245;BME280;37840;47.562;18.738;2023-06-14T12:34:27;99581.72;;;21.94;50.90
51245;BME280;37840;47.562;18.738;2023-06-14T12:36:53;99581.34;;;21.97;49.84
51245;BME280;37840;47.562;18.738;2023-06-14T12:39:20;99573.31;;;22.04;49.64
51245;BME280;37840;47.562;18.738;2023-06-14T12:41:47;99574.41;;;21.95;49.13
51245;BME280;37840;47.562;18.738;2023-06-14T12:44:13;99577.50;;;21.62;48.68
51245;BME280;37840;47.562;18.738;2023-06-14T12:46:40;99576.47;;;21.25;51.33
51245;BME280;37840;47.562;18.738;2023-06-14T12:49:11;99577.50;;;21.39;51.28
51245;BME280;37840;47.562;18.738;2023-06-14T12:51:38;99577.00;;;21.44;49.93
51245;BME280;37840;47.562;18.738;2023-06-14T12:54:04;99575.31;;;21.43;48.29
51245;BME280;37840;47.562;18.738;2023-06-14T12:56:30;99568.06;;;21.73;49.25
51245;BME280;37840;47.562;18.738;2023-06-14T12:58:58;99566.78;;;21.69;50.12
51245;BME280;37840;47.562;18.738;2023-06-14T13:01:24;99562.66;;;21.73;49.16
51245;BME280;37840;47.562;18.738;2023-06-14T13:03:50;99572.75;;;21.64;47.95
51245;BME280;37840;47.562;18.738;2023-06-14T13:06:21;99561.34;;;21.69;49.77
51245;BME280;37840;47.562;18.738;2023-06-14T13:08:48;99568.81;;;21.67;49.17
51245;BME280;37840;47.562;18.738;2023-06-14T13:11:15;99569.28;;;21.70;50.35